createdAt,value
2022-10-26T00:01:16.754Z,11.07
2022-10-26T00:03:46.523Z,10.80
2022-10-26T00:06:18.509Z,10.80
2022-10-26T00:08:46.772Z,11.20
2022-10-26T00:11:15.202Z,11.75
2022-10-26T00:13:43.671Z,11.25
2022-10-26T00:16:19.881Z,11.23
2022-10-26T00:18:47.976Z,11.98
2022-10-26T00:21:16.541Z,10.40
2022-10-26T00:23:44.749Z,10.85
2022-10-26T00:26:12.510Z,12.05
2022-10-26T00:28:40.213Z,11.05
2022-10-26T00:31:15.598Z,10.77
2022-10-26T00:33:43.250Z,12.23
2022-10-26T00:36:13.833Z,11.30
2022-10-26T00:38:46.276Z,12.65
2022-10-26T00:41:26.984Z,11.93
2022-10-26T00:43:55.399Z,11.27
2022-10-26T00:46:28.168Z,12.18
2022-10-26T00:48:58.841Z,11.43
2022-10-26T00:51:34.368Z,12.20
2022-10-26T00:54:06.682Z,11.70
2022-10-26T00:56:35.474Z,11.07
2022-10-26T00:59:06.974Z,11.10
2022-10-26T01:01:38.075Z,12.18
2022-10-26T01:04:05.887Z,12.75
2022-10-26T01:06:36.642Z,10.30
2022-10-26T01:09:05.911Z,9.88
2022-10-26T01:11:33.887Z,9.93
2022-10-26T01:14:04.746Z,11.13
2022-10-26T01:16:51.026Z,10.48
2022-10-26T01:19:27.647Z,11.10
2022-10-26T01:21:55.569Z,10.77
2022-10-26T01:24:23.255Z,10.90
2022-10-26T01:27:19.282Z,10.95
2022-10-26T01:30:09.695Z,10.13
2022-10-26T01:32:39.921Z,10.65
2022-10-26T01:35:15.917Z,10.43
2022-10-26T01:37:49.521Z,10.88
2022-10-26T01:42:55.650Z,10.93
2022-10-26T01:45:25.180Z,10.38
2022-10-26T01:47:54.739Z,10.45
2022-10-26T01:50:24.001Z,10.98
2022-10-26T01:52:52.335Z,9.38
2022-10-26T01:55:50.026Z,10.50
2022-10-26T01:58:40.042Z,9.60
2022-10-26T02:01:44.678Z,10.10
2022-10-26T02:07:07.499Z,10.77
2022-10-26T02:09:43.513Z,8.80
2022-10-26T02:12:41.266Z,10.25
2022-10-26T02:15:29.452Z,10.32
2022-10-26T02:18:08.768Z,9.68
2022-10-26T02:20:43.211Z,10.77
2022-10-26T02:23:14.030Z,10.57
2022-10-26T02:25:49.543Z,11.38
2022-10-26T02:28:26.141Z,9.07
2022-10-26T02:30:57.639Z,10.52
2022-10-26T02:33:28.099Z,11.85
2022-10-26T02:35:59.975Z,9.40
2022-10-26T02:38:31.230Z,9.25
2022-10-26T02:41:01.822Z,10.82
2022-10-26T02:43:32.985Z,9.68
2022-10-26T02:46:06.874Z,9.05
2022-10-26T02:48:35.640Z,8.77
2022-10-26T02:51:14.987Z,8.45
2022-10-26T02:53:50.655Z,9.68
2022-10-26T02:56:28.241Z,8.23
2022-10-26T02:59:01.091Z,10.73
2022-10-26T03:01:30.884Z,8.70
2022-10-26T03:04:00.093Z,8.45
2022-10-26T03:06:27.865Z,8.27
2022-10-26T03:08:55.512Z,8.23
2022-10-26T03:11:23.638Z,8.23
2022-10-26T03:13:51.301Z,9.02
2022-10-26T03:16:19.741Z,9.80
2022-10-26T03:18:47.526Z,11.48
2022-10-26T03:21:15.612Z,9.50
2022-10-26T03:23:43.221Z,9.60
2022-10-26T03:26:11.223Z,9.75
2022-10-26T03:28:39.029Z,9.50
2022-10-26T03:31:07.420Z,8.93
2022-10-26T03:33:35.371Z,8.50
2022-10-26T03:36:03.304Z,10.07
2022-10-26T03:38:31.473Z,9.02
2022-10-26T03:40:59.253Z,11.20
2022-10-26T03:43:27.220Z,9.80
2022-10-26T03:45:54.867Z,10.05
2022-10-26T03:48:22.560Z,9.38
2022-10-26T03:50:50.315Z,10.68
2022-10-26T03:53:18.374Z,9.80
2022-10-26T03:55:45.969Z,9.30
2022-10-26T03:58:14.035Z,9.32
2022-10-26T04:00:41.787Z,13.77
2022-10-26T04:03:09.399Z,13.82
2022-10-26T04:05:37.425Z,10.48
2022-10-26T04:08:05.802Z,8.45
2022-10-26T04:10:33.493Z,9.40
2022-10-26T04:13:01.990Z,9.63
2022-10-26T04:15:30.893Z,10.05
2022-10-26T04:18:00.805Z,10.57
2022-10-26T04:20:30.049Z,11.13
2022-10-26T04:23:06.322Z,10.75
2022-10-26T04:25:34.243Z,11.05
2022-10-26T04:28:03.933Z,10.00
2022-10-26T04:30:33.484Z,10.15
2022-10-26T04:33:01.455Z,11.25
2022-10-26T04:35:29.685Z,10.55
2022-10-26T04:38:01.530Z,10.25
2022-10-26T04:40:31.182Z,11.10
2022-10-26T04:42:58.988Z,11.00
2022-10-26T04:45:31.166Z,10.48
2022-10-26T04:48:11.157Z,10.82
2022-10-26T04:50:40.342Z,9.18
2022-10-26T04:53:09.207Z,10.27
2022-10-26T04:55:37.377Z,10.38
2022-10-26T04:58:05.497Z,9.40
2022-10-26T05:00:34.596Z,10.25
2022-10-26T05:03:03.967Z,12.05
2022-10-26T05:05:33.101Z,10.80
2022-10-26T05:08:01.254Z,11.57
2022-10-26T05:10:28.978Z,10.90
2022-10-26T05:12:58.166Z,10.80
2022-10-26T05:15:26.423Z,10.70
2022-10-26T05:18:02.859Z,11.32
2022-10-26T05:20:32.670Z,11.70
2022-10-26T05:23:03.377Z,11.05
2022-10-26T05:25:34.034Z,10.90
2022-10-26T05:28:04.203Z,10.80
2022-10-26T05:30:32.222Z,12.70
2022-10-26T05:33:05.081Z,12.68
2022-10-26T05:35:33.480Z,11.80
2022-10-26T05:38:17.416Z,10.55
2022-10-26T05:43:16.290Z,10.82
2022-10-26T05:45:44.224Z,11.07
2022-10-26T05:48:12.790Z,11.25
2022-10-26T05:50:40.312Z,12.00
2022-10-26T05:53:08.069Z,10.73
2022-10-26T05:55:36.206Z,11.10
2022-10-26T05:58:04.985Z,11.88
2022-10-26T06:00:33.344Z,11.43
2022-10-26T06:06:04.004Z,10.98
2022-10-26T06:08:37.661Z,10.88
2022-10-26T06:11:07.151Z,10.15
2022-10-26T06:13:35.630Z,10.32
2022-10-26T06:16:36.821Z,10.02
2022-10-26T06:19:24.298Z,11.82
2022-10-26T06:22:14.263Z,11.45
2022-10-26T06:24:59.702Z,11.25
2022-10-26T06:28:05.969Z,11.60
2022-10-26T06:30:34.098Z,12.55
2022-10-26T06:33:06.490Z,11.65
2022-10-26T06:36:06.671Z,11.57
2022-10-26T06:38:35.496Z,11.85
2022-10-26T06:41:04.377Z,11.18
2022-10-26T06:43:34.780Z,12.32
2022-10-26T06:46:41.424Z,13.43
2022-10-26T06:49:27.584Z,12.32
2022-10-26T06:52:07.363Z,13.40
2022-10-26T06:54:41.251Z,12.98
2022-10-26T06:57:14.491Z,13.48
2022-10-26T06:59:56.121Z,12.63
2022-10-26T07:02:24.046Z,14.73
2022-10-26T07:04:51.821Z,13.70
2022-10-26T07:07:25.483Z,13.63
2022-10-26T07:12:20.577Z,13.93
2022-10-26T07:14:48.277Z,14.75
2022-10-26T07:17:17.058Z,14.27
2022-10-26T07:19:44.989Z,14.88
2022-10-26T07:22:13.184Z,15.43
2022-10-26T07:24:41.364Z,14.90
2022-10-26T07:27:09.070Z,14.90
2022-10-26T07:29:36.623Z,15.18
2022-10-26T07:32:04.402Z,15.15
2022-10-26T07:34:31.964Z,14.25
2022-10-26T07:37:00.862Z,14.52
2022-10-26T07:39:28.651Z,14.45
2022-10-26T07:41:56.692Z,13.32
2022-10-26T07:44:24.706Z,14.23
2022-10-26T07:46:52.605Z,14.55
2022-10-26T07:49:20.775Z,14.10
2022-10-26T07:51:49.282Z,13.57
2022-10-26T07:54:16.792Z,12.55
2022-10-26T07:56:44.473Z,12.13
2022-10-26T07:59:13.281Z,11.95
2022-10-26T08:01:41.036Z,13.43
2022-10-26T08:04:08.658Z,12.80
2022-10-26T08:06:36.676Z,20.83
2022-10-26T08:09:04.533Z,20.63
2022-10-26T08:11:32.571Z,24.65
2022-10-26T08:14:00.051Z,26.27
2022-10-26T08:16:27.778Z,21.42
2022-10-26T08:18:55.517Z,19.90
2022-10-26T08:21:36.192Z,18.55
2022-10-26T08:24:07.929Z,16.60
2022-10-26T08:26:36.283Z,15.52
2022-10-26T08:29:04.056Z,14.85
2022-10-26T08:31:32.011Z,14.85
2022-10-26T08:33:59.899Z,13.43
2022-10-26T08:36:29.062Z,14.93
2022-10-26T08:38:56.828Z,14.20
2022-10-26T08:41:36.803Z,14.00
2022-10-26T08:44:25.988Z,15.55
2022-10-26T08:47:20.087Z,15.68
2022-10-26T08:50:03.446Z,16.58
2022-10-26T08:52:39.696Z,16.25
2022-10-26T08:55:16.353Z,16.35
2022-10-26T08:57:51.029Z,17.23
2022-10-26T09:00:21.717Z,16.77
2022-10-26T09:02:54.285Z,16.05
2022-10-26T09:05:44.741Z,15.88
2022-10-26T09:08:28.585Z,15.77
2022-10-26T09:11:17.001Z,16.33
2022-10-26T09:13:56.410Z,15.13
2022-10-26T09:16:29.339Z,18.20
2022-10-26T09:19:03.895Z,14.95
2022-10-26T09:21:40.425Z,15.60
2022-10-26T09:24:29.328Z,15.95
2022-10-26T09:27:29.010Z,17.33
2022-10-26T09:29:59.798Z,16.65
2022-10-26T09:32:35.977Z,16.67
2022-10-26T09:35:13.334Z,16.40
2022-10-26T09:37:47.202Z,16.83
2022-10-26T09:40:41.180Z,14.40
2022-10-26T09:43:26.970Z,16.17
2022-10-26T09:45:55.041Z,14.80
2022-10-26T09:48:41.231Z,15.43
2022-10-26T09:51:11.192Z,14.07
2022-10-26T09:53:38.639Z,14.43
2022-10-26T09:56:12.442Z,14.43
2022-10-26T09:58:46.541Z,14.77
2022-10-26T10:01:38.168Z,15.57
2022-10-26T10:04:17.921Z,14.13
2022-10-26T10:06:47.597Z,14.30
2022-10-26T10:09:16.613Z,13.32
2022-10-26T10:11:49.395Z,14.30
2022-10-26T10:14:18.138Z,14.23
2022-10-26T10:16:58.848Z,12.73
2022-10-26T10:19:35.788Z,11.32
2022-10-26T10:22:22.755Z,11.20
2022-10-26T10:25:04.784Z,12.35
2022-10-26T10:27:33.571Z,12.93
2022-10-26T10:30:23.732Z,11.10
2022-10-26T10:33:11.001Z,11.40
2022-10-26T10:35:48.470Z,10.95
2022-10-26T10:38:19.158Z,12.43
2022-10-26T10:40:56.577Z,12.95
2022-10-26T10:43:25.750Z,12.05
2022-10-26T10:45:59.400Z,11.88
2022-10-26T10:48:28.950Z,12.05
2022-10-26T10:51:02.271Z,12.25
2022-10-26T10:53:52.387Z,11.18
2022-10-26T10:56:42.136Z,11.52
2022-10-26T10:59:12.617Z,11.70
2022-10-26T11:01:49.335Z,12.82
2022-10-26T11:04:16.933Z,10.45
2022-10-26T11:06:46.834Z,10.55
2022-10-26T11:09:18.699Z,10.70
2022-10-26T11:11:52.460Z,11.20
2022-10-26T11:14:43.311Z,10.35
2022-10-26T11:17:23.003Z,11.27
2022-10-26T11:20:14.909Z,12.18
2022-10-26T11:22:59.359Z,9.85
2022-10-26T11:25:37.035Z,9.60
2022-10-26T11:28:40.367Z,9.93
2022-10-26T11:31:15.957Z,9.52
2022-10-26T11:34:21.743Z,11.70
2022-10-26T11:36:56.003Z,11.65
2022-10-26T11:39:45.703Z,12.27
2022-10-26T11:42:19.038Z,10.45
2022-10-26T11:45:25.370Z,12.45
2022-10-26T11:48:22.496Z,11.63
2022-10-26T11:50:58.621Z,14.77
2022-10-26T11:53:40.483Z,13.45
2022-10-26T11:56:19.067Z,12.18
2022-10-26T11:58:47.309Z,13.93
2022-10-26T12:01:17.192Z,13.05
2022-10-26T12:03:50.408Z,14.43
2022-10-26T12:06:25.149Z,14.93
2022-10-26T12:09:01.659Z,14.13
2022-10-26T12:12:01.576Z,14.23
2022-10-26T12:14:43.953Z,63.28
2022-10-26T12:17:30.292Z,13.65
2022-10-26T12:20:19.399Z,13.68
2022-10-26T12:22:47.946Z,13.13
2022-10-26T12:25:15.716Z,12.88
2022-10-26T12:27:43.308Z,14.30
2022-10-26T12:30:19.687Z,12.93
2022-10-26T12:32:48.636Z,13.93
2022-10-26T12:35:53.013Z,12.27
2022-10-26T12:41:04.195Z,11.45
2022-10-26T12:43:31.783Z,10.70
2022-10-26T12:46:14.615Z,12.18
2022-10-26T12:48:47.492Z,11.13
2022-10-26T12:51:30.310Z,10.23
2022-10-26T12:54:02.857Z,10.30
2022-10-26T12:56:37.987Z,10.65
2022-10-26T12:59:13.057Z,12.13
2022-10-26T13:02:04.820Z,11.15
2022-10-26T13:04:47.220Z,9.73
2022-10-26T13:07:27.519Z,8.82
2022-10-26T13:10:24.539Z,10.60
2022-10-26T13:12:58.843Z,9.57
2022-10-26T13:15:36.505Z,10.27
2022-10-26T13:18:06.898Z,10.32
2022-10-26T13:20:37.326Z,9.52
2022-10-26T13:23:20.944Z,10.27
2022-10-26T13:26:12.061Z,9.80
2022-10-26T13:28:39.715Z,9.85
2022-10-26T13:31:28.765Z,10.45
2022-10-26T13:37:14.628Z,9.15
2022-10-26T13:39:46.053Z,10.68
2022-10-26T13:42:18.675Z,10.60
2022-10-26T13:44:57.768Z,10.05
2022-10-26T13:47:43.048Z,10.48
2022-10-26T13:50:16.554Z,9.25
2022-10-26T13:52:51.343Z,10.20
2022-10-26T13:55:25.395Z,9.85
2022-10-26T13:58:40.768Z,10.63
2022-10-26T14:01:14.531Z,9.95
2022-10-26T14:03:42.960Z,10.70
2022-10-26T14:06:28.678Z,10.60
2022-10-26T14:09:00.945Z,10.05
2022-10-26T14:11:38.114Z,11.50
2022-10-26T14:14:05.677Z,11.82
2022-10-26T14:16:34.580Z,10.98
2022-10-26T14:19:02.792Z,11.30
2022-10-26T14:21:30.890Z,11.48
2022-10-26T14:24:00.401Z,12.45
2022-10-26T14:26:31.247Z,13.00
2022-10-26T14:29:01.484Z,13.27
2022-10-26T14:31:32.396Z,13.27
2022-10-26T14:34:04.376Z,11.63
2022-10-26T14:36:55.392Z,13.52
2022-10-26T14:39:47.780Z,14.63
2022-10-26T14:42:30.962Z,14.50
2022-10-26T14:44:59.099Z,8.95
2022-10-26T14:47:29.399Z,11.82
2022-10-26T14:52:32.704Z,11.93
2022-10-26T14:55:21.052Z,15.77
2022-10-26T14:57:51.479Z,12.88
2022-10-26T15:00:20.735Z,14.13
2022-10-26T15:05:23.054Z,14.43
2022-10-26T15:07:53.509Z,13.45
2022-10-26T15:10:36.290Z,15.07
2022-10-26T15:13:23.785Z,13.57
2022-10-26T15:15:57.513Z,16.52
2022-10-26T15:18:25.891Z,13.38
2022-10-26T15:20:54.911Z,15.02
2022-10-26T15:23:25.448Z,15.73
2022-10-26T15:26:00.559Z,14.32
2022-10-26T15:28:37.525Z,13.18
2022-10-26T15:31:29.391Z,15.23
2022-10-26T15:34:06.416Z,16.73
2022-10-26T15:36:36.166Z,17.88
2022-10-26T15:39:04.304Z,16.17
2022-10-26T15:41:37.723Z,16.40
2022-10-26T15:44:14.805Z,16.92
2022-10-26T15:46:43.697Z,17.33
2022-10-26T15:49:20.135Z,16.48
2022-10-26T15:51:48.915Z,16.75
2022-10-26T15:54:16.472Z,16.58
2022-10-26T15:56:44.396Z,17.70
2022-10-26T15:59:17.774Z,16.95
2022-10-26T16:04:13.973Z,14.93
2022-10-26T16:06:42.091Z,17.92
2022-10-26T16:09:16.623Z,15.70
2022-10-26T16:11:44.954Z,16.75
2022-10-26T16:14:13.191Z,16.15
2022-10-26T16:16:41.448Z,16.63
2022-10-26T16:19:29.793Z,16.20
2022-10-26T16:21:59.314Z,17.63
2022-10-26T16:24:28.934Z,17.15
2022-10-26T16:26:57.485Z,16.50
2022-10-26T16:29:25.357Z,16.50
2022-10-26T16:31:52.911Z,17.70
2022-10-26T16:34:20.808Z,16.92
2022-10-26T16:36:48.775Z,17.45
2022-10-26T16:39:16.387Z,17.73
2022-10-26T16:41:44.259Z,16.90
2022-10-26T16:44:13.626Z,18.67
2022-10-26T16:46:42.158Z,16.70
2022-10-26T16:49:10.455Z,16.50
2022-10-26T16:51:38.115Z,17.25
2022-10-26T16:54:06.427Z,17.35
2022-10-26T16:56:35.257Z,15.13
2022-10-26T16:59:02.865Z,15.32
2022-10-26T17:01:30.822Z,17.00
2022-10-26T17:03:58.748Z,17.58
2022-10-26T17:06:26.359Z,17.52
2022-10-26T17:08:53.953Z,18.15
2022-10-26T17:11:21.895Z,16.10
2022-10-26T17:13:54.344Z,20.27
2022-10-26T17:16:24.876Z,18.17
2022-10-26T17:18:53.540Z,19.70
2022-10-26T17:21:30.864Z,18.15
2022-10-26T17:23:58.676Z,20.38
2022-10-26T17:26:26.431Z,19.52
2022-10-26T17:28:56.983Z,19.58
2022-10-26T17:31:25.622Z,20.73
2022-10-26T17:33:54.128Z,19.65
2022-10-26T17:36:23.430Z,17.25
2022-10-26T17:38:52.747Z,18.35
2022-10-26T17:41:22.414Z,20.25
2022-10-26T17:43:50.547Z,21.55
2022-10-26T17:46:22.897Z,19.23
2022-10-26T17:48:58.538Z,19.13
2022-10-26T17:51:28.568Z,20.85
2022-10-26T17:53:57.216Z,18.77
2022-10-26T17:56:28.087Z,18.40
2022-10-26T17:58:58.529Z,20.50
2022-10-26T18:01:27.569Z,21.23
2022-10-26T18:03:55.880Z,24.67
2022-10-26T18:06:24.527Z,22.25
2022-10-26T18:08:52.110Z,19.80
2022-10-26T18:11:26.940Z,25.70
2022-10-26T18:13:56.630Z,23.80
2022-10-26T18:16:26.482Z,24.60
2022-10-26T18:19:00.712Z,20.13
2022-10-26T18:21:31.484Z,21.60
2022-10-26T18:23:59.605Z,24.15
2022-10-26T18:26:29.066Z,24.70
2022-10-26T18:29:01.457Z,19.70
2022-10-26T18:31:30.994Z,20.55
2022-10-26T18:34:01.078Z,20.00
2022-10-26T18:36:29.818Z,19.70
2022-10-26T18:38:58.174Z,21.58
2022-10-26T18:41:27.349Z,25.23
2022-10-26T18:43:59.736Z,21.55
2022-10-26T18:46:33.894Z,20.50
2022-10-26T18:49:02.004Z,21.55
2022-10-26T18:51:32.377Z,20.88
2022-10-26T18:54:00.772Z,20.80
2022-10-26T18:56:28.471Z,22.75
2022-10-26T18:59:00.897Z,20.10
2022-10-26T19:01:31.972Z,23.98
2022-10-26T19:04:02.366Z,22.40
2022-10-26T19:06:35.266Z,27.85
2022-10-26T19:09:04.996Z,29.17
2022-10-26T19:11:33.931Z,21.75
2022-10-26T19:14:01.413Z,22.35
2022-10-26T19:16:45.261Z,21.63
2022-10-26T19:19:16.459Z,20.48
2022-10-26T19:21:47.287Z,21.23
2022-10-26T19:24:20.335Z,21.58
2022-10-26T19:26:50.345Z,23.30
2022-10-26T19:29:19.244Z,21.73
2022-10-26T19:31:51.014Z,20.67
2022-10-26T19:34:19.432Z,20.63
2022-10-26T19:36:47.723Z,21.92
2022-10-26T19:39:17.205Z,20.85
2022-10-26T19:41:46.646Z,24.92
2022-10-26T19:44:15.549Z,21.33
2022-10-26T19:46:43.921Z,24.38
2022-10-26T19:49:12.871Z,23.38
2022-10-26T19:51:40.698Z,23.80
2022-10-26T19:54:08.667Z,22.95
2022-10-26T19:56:38.049Z,21.63
2022-10-26T19:59:06.807Z,23.77
2022-10-26T20:01:34.999Z,22.10
2022-10-26T20:04:03.580Z,22.30
2022-10-26T20:06:31.744Z,22.58
2022-10-26T20:09:00.052Z,22.45
2022-10-26T20:11:28.308Z,21.63
2022-10-26T20:13:56.531Z,23.45
2022-10-26T20:16:24.776Z,22.90
2022-10-26T20:18:52.560Z,21.52
2022-10-26T20:21:20.561Z,21.83
2022-10-26T20:23:48.259Z,21.63
2022-10-26T20:26:19.222Z,22.92
2022-10-26T20:28:50.882Z,23.48
2022-10-26T20:31:19.882Z,21.90
2022-10-26T20:33:55.423Z,22.33
2022-10-26T20:36:23.256Z,20.92
2022-10-26T20:38:51.293Z,23.00
2022-10-26T20:41:19.374Z,21.80
2022-10-26T20:43:47.332Z,24.10
2022-10-26T20:46:23.390Z,24.02
2022-10-26T20:48:52.242Z,23.02
2022-10-26T20:51:56.702Z,25.60
2022-10-26T20:54:54.526Z,23.73
2022-10-26T20:57:28.537Z,23.75
2022-10-26T21:00:10.996Z,23.65
2022-10-26T21:02:38.566Z,24.45
2022-10-26T21:05:06.502Z,24.23
2022-10-26T21:07:34.528Z,25.13
2022-10-26T21:10:02.511Z,25.27
2022-10-26T21:12:30.406Z,24.17
2022-10-26T21:14:58.167Z,24.13
2022-10-26T21:17:26.175Z,24.13
2022-10-26T21:19:53.815Z,23.73
2022-10-26T21:22:21.491Z,23.05
2022-10-26T21:24:50.109Z,24.58
2022-10-26T21:27:18.551Z,25.27
2022-10-26T21:29:46.321Z,25.58
2022-10-26T21:32:14.081Z,25.70
2022-10-26T21:34:42.152Z,27.58
2022-10-26T21:37:09.679Z,27.58
2022-10-26T21:39:37.424Z,26.45
2022-10-26T21:42:05.687Z,24.90
2022-10-26T21:44:40.955Z,25.95
2022-10-26T21:47:12.613Z,26.15
2022-10-26T21:52:09.609Z,24.88
2022-10-26T21:54:37.891Z,27.38
2022-10-26T21:57:06.051Z,29.38
2022-10-26T21:59:34.178Z,24.80
2022-10-26T22:02:02.184Z,25.90
2022-10-26T22:04:30.406Z,25.80
2022-10-26T22:06:58.116Z,22.70
2022-10-26T22:09:25.641Z,21.88
2022-10-26T22:11:53.759Z,27.05
2022-10-26T22:14:21.325Z,25.42
2022-10-26T22:16:48.945Z,24.63
2022-10-26T22:19:16.747Z,24.88
2022-10-26T22:21:44.851Z,25.77
2022-10-26T22:24:12.735Z,24.45
2022-10-26T22:26:41.242Z,24.50
2022-10-26T22:29:09.340Z,26.15
2022-10-26T22:31:39.527Z,26.80
2022-10-26T22:34:13.212Z,25.80
2022-10-26T22:36:41.723Z,28.40
2022-10-26T22:39:09.478Z,27.90
2022-10-26T22:41:37.086Z,27.73
2022-10-26T22:44:05.291Z,27.60
2022-10-26T22:46:32.935Z,28.88
2022-10-26T22:49:02.435Z,27.67
2022-10-26T22:51:33.753Z,24.48
2022-10-26T22:54:03.875Z,26.20
2022-10-26T22:56:32.941Z,28.25
2022-10-26T22:59:01.016Z,29.23
2022-10-26T23:01:32.007Z,29.73
2022-10-26T23:04:00.439Z,28.77
2022-10-26T23:06:30.661Z,26.98
2022-10-26T23:08:58.830Z,27.30
2022-10-26T23:11:28.588Z,26.85
2022-10-26T23:13:59.803Z,26.83
2022-10-26T23:16:29.425Z,31.00
2022-10-26T23:18:59.173Z,29.35
2022-10-26T23:21:29.273Z,27.50
2022-10-26T23:23:58.041Z,29.48
2022-10-26T23:26:25.671Z,48.97
2022-10-26T23:28:53.879Z,29.52
2022-10-26T23:31:25.656Z,31.40
2022-10-26T23:33:55.362Z,29.30
2022-10-26T23:36:23.635Z,30.35
2022-10-26T23:38:51.837Z,30.25
2022-10-26T23:41:19.683Z,29.17
2022-10-26T23:43:50.371Z,28.35
2022-10-26T23:46:18.447Z,29.80
2022-10-26T23:48:46.502Z,29.35
2022-10-26T23:51:14.588Z,30.20
2022-10-26T23:53:42.388Z,30.23
2022-10-26T23:56:10.664Z,31.27
2022-10-26T23:58:38.300Z,29.75
